Ligon, Kentucky
Current Conditions -  °F | °C
As of 12:15 AM on Wednesday 26 Nov 2014 (Local Time) from KPBX Reporting Station
Clear Clear  
Wind Chill: 37°   Ceiling: Unl
Heat Index: 41°   Visibility: 10mi
Dew Point: 28°   Wind: 6mph
Humidity: 62%   Direction: 360°N
Pressure: 30.1"   Gusts: NA
Location:  37.3721°N, 82.6871°W
Report Text: KPBX 260515Z AUTO 36005KT 10SM CLR 05/M02 A3010 RMK AO2 T00481020
Loading
Personal Weather Stations






























Interactive Weather Map New forecast layout! Learn more

10-Day Weather Forecast

Advertisements
Track Severe Weather on mobile